createdAt,value
2022-11-28T00:00:34.477Z,91.64
2022-11-28T00:01:34.368Z,91.71
2022-11-28T00:02:34.468Z,91.79
2022-11-28T00:03:34.405Z,91.86
2022-11-28T00:04:34.367Z,91.93
2022-11-28T00:05:34.264Z,91.95
2022-11-28T00:06:34.343Z,92.00
2022-11-28T00:07:34.303Z,92.02
2022-11-28T00:08:34.299Z,91.97
2022-11-28T00:09:34.208Z,92.00
2022-11-28T00:10:34.291Z,91.98
2022-11-28T00:11:34.206Z,91.98
2022-11-28T00:12:34.261Z,91.96
2022-11-28T00:13:34.171Z,91.96
2022-11-28T00:14:34.437Z,91.92
2022-11-28T00:15:34.227Z,91.92
2022-11-28T00:16:34.365Z,91.78
2022-11-28T00:17:34.116Z,91.71
2022-11-28T00:18:34.240Z,91.70
2022-11-28T00:19:34.086Z,91.72
2022-11-28T00:20:34.149Z,91.74
2022-11-28T00:21:34.057Z,91.73
2022-11-28T00:22:34.118Z,91.72
2022-11-28T00:23:34.042Z,91.72
2022-11-28T00:24:34.096Z,91.69
2022-11-28T00:25:34.008Z,91.70
2022-11-28T00:26:34.070Z,91.72
2022-11-28T00:27:33.972Z,91.72
2022-11-28T00:28:34.043Z,91.71
2022-11-28T00:29:33.959Z,91.73
2022-11-28T00:30:34.016Z,91.75
2022-11-28T00:31:34.040Z,91.72
2022-11-28T00:32:33.987Z,91.77
2022-11-28T00:33:33.899Z,91.73
2022-11-28T00:34:33.956Z,91.68
2022-11-28T00:35:33.864Z,91.65
2022-11-28T00:36:33.933Z,91.60
2022-11-28T00:37:33.853Z,91.58
2022-11-28T00:38:33.900Z,91.54
2022-11-28T00:39:33.814Z,91.55
2022-11-28T00:40:33.879Z,91.57
2022-11-28T00:41:33.802Z,91.58
2022-11-28T00:42:33.858Z,91.58
2022-11-28T00:43:33.770Z,91.58
2022-11-28T00:44:34.008Z,91.57
2022-11-28T00:45:33.754Z,91.61
2022-11-28T00:46:33.800Z,91.62
2022-11-28T00:47:33.715Z,91.64
2022-11-28T00:48:33.758Z,91.64
2022-11-28T00:49:33.697Z,91.66
2022-11-28T00:50:33.739Z,91.65
2022-11-28T00:51:33.673Z,91.61
2022-11-28T00:52:33.721Z,91.58
2022-11-28T00:53:33.620Z,91.59
2022-11-28T00:54:33.689Z,91.57
2022-11-28T00:55:33.596Z,91.56
2022-11-28T00:56:33.647Z,91.60
2022-11-28T00:57:33.566Z,91.68
2022-11-28T00:58:33.635Z,91.71
2022-11-28T00:59:33.540Z,91.76
2022-11-28T01:00:33.630Z,91.79
2022-11-28T01:01:33.631Z,91.81
2022-11-28T01:02:33.604Z,91.84
2022-11-28T01:03:33.499Z,91.89
2022-11-28T01:04:33.557Z,91.91
2022-11-28T01:05:33.480Z,91.92
2022-11-28T01:06:33.567Z,91.90
2022-11-28T01:07:33.537Z,91.88
2022-11-28T01:08:33.501Z,91.86
2022-11-28T01:09:33.422Z,91.86
2022-11-28T01:10:33.489Z,91.90
2022-11-28T01:11:33.398Z,91.96
2022-11-28T01:12:33.463Z,91.93
2022-11-28T01:13:33.371Z,91.92
2022-11-28T01:14:33.426Z,91.91
2022-11-28T01:15:33.343Z,91.86
2022-11-28T01:16:33.452Z,91.82
2022-11-28T01:17:33.305Z,91.78
2022-11-28T01:18:33.382Z,91.80
2022-11-28T01:19:33.288Z,91.83
2022-11-28T01:20:33.356Z,91.88
2022-11-28T01:21:33.253Z,91.94
2022-11-28T01:22:33.306Z,91.93
2022-11-28T01:23:33.241Z,92.00
2022-11-28T01:24:33.285Z,91.98
2022-11-28T01:25:33.206Z,92.00
2022-11-28T01:26:33.267Z,91.98
2022-11-28T01:27:33.182Z,91.95
2022-11-28T01:28:33.296Z,91.89
2022-11-28T01:29:33.142Z,91.91
2022-11-28T01:30:33.208Z,91.94
2022-11-28T01:31:33.165Z,91.94
2022-11-28T01:32:33.184Z,91.97
2022-11-28T01:33:33.088Z,92.05
2022-11-28T01:34:33.144Z,92.13
2022-11-28T01:35:33.058Z,92.20
2022-11-28T01:36:33.128Z,92.25
2022-11-28T01:37:33.045Z,92.29
2022-11-28T01:38:33.095Z,92.30
2022-11-28T01:39:33.009Z,92.31
2022-11-28T01:40:33.078Z,92.26
2022-11-28T01:41:32.982Z,92.29
2022-11-28T01:42:33.034Z,92.25
2022-11-28T01:43:32.949Z,92.15
2022-11-28T01:44:33.023Z,92.04
2022-11-28T01:45:32.941Z,92.05
2022-11-28T01:46:33.066Z,92.10
2022-11-28T01:47:32.913Z,92.14
2022-11-28T01:48:32.967Z,92.21
2022-11-28T01:49:32.873Z,92.27
2022-11-28T01:50:32.939Z,92.31
2022-11-28T01:51:32.859Z,92.32
2022-11-28T01:52:32.916Z,92.28
2022-11-28T01:53:32.818Z,92.28
2022-11-28T01:54:32.906Z,92.26
2022-11-28T01:55:32.796Z,92.24
2022-11-28T01:56:32.857Z,92.30
2022-11-28T01:57:32.765Z,92.25
2022-11-28T01:58:32.834Z,92.24
2022-11-28T01:59:32.755Z,92.30
2022-11-28T02:00:32.860Z,92.30
2022-11-28T02:01:32.716Z,92.31
2022-11-28T02:02:32.831Z,92.30
2022-11-28T02:03:32.693Z,92.32
2022-11-28T02:04:32.775Z,92.28
2022-11-28T02:05:32.676Z,92.25
2022-11-28T02:06:32.736Z,92.25
2022-11-28T02:07:32.703Z,92.24
2022-11-28T02:08:32.720Z,92.24
2022-11-28T02:09:32.614Z,92.25
2022-11-28T02:10:32.665Z,92.25
2022-11-28T02:11:32.591Z,92.23
2022-11-28T02:12:32.650Z,92.21
2022-11-28T02:13:32.572Z,92.21
2022-11-28T02:14:32.624Z,92.23
2022-11-28T02:15:32.540Z,92.23
2022-11-28T02:16:32.657Z,92.24
2022-11-28T02:17:32.517Z,92.23
2022-11-28T02:18:32.585Z,92.24
2022-11-28T02:19:32.477Z,92.18
2022-11-28T02:20:32.558Z,92.12
2022-11-28T02:21:32.465Z,92.10
2022-11-28T02:22:32.527Z,92.16
2022-11-28T02:23:32.433Z,92.21
2022-11-28T02:24:32.503Z,92.20
2022-11-28T02:25:32.409Z,92.19
2022-11-28T02:26:32.492Z,92.18
2022-11-28T02:27:32.374Z,92.20
2022-11-28T02:28:32.461Z,92.17
2022-11-28T02:29:32.341Z,92.10
2022-11-28T02:30:32.414Z,92.01
2022-11-28T02:31:32.371Z,91.95
2022-11-28T02:32:32.393Z,91.88
2022-11-28T02:33:32.301Z,91.87
2022-11-28T02:34:32.358Z,91.89
2022-11-28T02:35:32.270Z,91.91
2022-11-28T02:36:32.347Z,91.96
2022-11-28T02:37:32.239Z,91.97
2022-11-28T02:38:32.378Z,92.02
2022-11-28T02:39:32.211Z,92.09
2022-11-28T02:40:32.310Z,92.18
2022-11-28T02:41:32.183Z,92.26
2022-11-28T02:42:32.257Z,92.31
2022-11-28T02:43:32.170Z,92.38
2022-11-28T02:44:32.222Z,92.42
2022-11-28T02:45:32.124Z,92.49
2022-11-28T02:46:32.260Z,92.55
2022-11-28T02:47:32.103Z,92.64
2022-11-28T02:48:32.166Z,92.65
2022-11-28T02:49:32.071Z,92.69
2022-11-28T02:50:32.138Z,92.74
2022-11-28T02:51:32.042Z,92.74
2022-11-28T02:52:32.120Z,92.70
2022-11-28T02:53:32.029Z,92.66
2022-11-28T02:54:32.077Z,92.68
2022-11-28T02:55:31.989Z,92.68
2022-11-28T02:56:32.071Z,92.65
2022-11-28T02:57:31.967Z,92.61
2022-11-28T02:58:32.050Z,92.58
2022-11-28T02:59:31.954Z,92.55
2022-11-28T03:00:32.107Z,92.51
2022-11-28T03:01:31.968Z,92.47
2022-11-28T03:02:32.110Z,92.49
2022-11-28T03:03:31.902Z,92.45
2022-11-28T03:04:32.057Z,92.38
2022-11-28T03:05:31.861Z,92.39
2022-11-28T03:06:31.933Z,92.39
2022-11-28T03:07:31.898Z,92.39
2022-11-28T03:08:31.911Z,92.29
2022-11-28T03:09:31.806Z,92.24
2022-11-28T03:10:31.868Z,92.17
2022-11-28T03:11:31.787Z,92.11
2022-11-28T03:12:31.856Z,92.13
2022-11-28T03:13:31.753Z,92.15
2022-11-28T03:14:31.824Z,92.16
2022-11-28T03:15:31.740Z,92.17
2022-11-28T03:16:31.927Z,92.16
2022-11-28T03:17:31.700Z,92.13
2022-11-28T03:18:31.775Z,92.12
2022-11-28T03:19:31.685Z,92.11
2022-11-28T03:20:31.732Z,92.02
2022-11-28T03:21:31.657Z,91.91
2022-11-28T03:22:31.714Z,91.85
2022-11-28T03:23:31.636Z,91.86
2022-11-28T03:24:31.703Z,91.90
2022-11-28T03:25:31.615Z,91.97
2022-11-28T03:26:31.665Z,92.07
2022-11-28T03:27:31.567Z,92.10
2022-11-28T03:28:31.646Z,92.13
2022-11-28T03:29:31.551Z,92.20
2022-11-28T03:30:31.617Z,92.27
2022-11-28T03:31:31.577Z,92.34
2022-11-28T03:32:31.577Z,92.33
2022-11-28T03:33:31.498Z,92.30
2022-11-28T03:34:31.554Z,92.23
2022-11-28T03:35:31.458Z,92.23
2022-11-28T03:36:31.521Z,92.29
2022-11-28T03:37:31.444Z,92.39
2022-11-28T03:38:31.513Z,92.42
2022-11-28T03:39:31.407Z,92.40
2022-11-28T03:40:31.463Z,92.38
2022-11-28T03:41:31.395Z,92.48
2022-11-28T03:42:31.464Z,92.55
2022-11-28T03:43:31.363Z,92.57
2022-11-28T03:44:31.423Z,92.58
2022-11-28T03:45:31.340Z,92.61
2022-11-28T03:46:31.441Z,92.59
2022-11-28T03:47:31.306Z,92.58
2022-11-28T03:48:31.367Z,92.54
2022-11-28T03:49:31.270Z,92.52
2022-11-28T03:50:31.325Z,92.43
2022-11-28T03:51:31.253Z,92.37
2022-11-28T03:52:31.304Z,92.36
2022-11-28T03:53:31.215Z,92.36
2022-11-28T03:54:31.281Z,92.38
2022-11-28T03:55:31.233Z,92.44
2022-11-28T03:56:31.267Z,92.51
2022-11-28T03:57:31.167Z,92.59
2022-11-28T03:58:31.219Z,92.67
2022-11-28T03:59:31.136Z,92.70
2022-11-28T04:00:31.296Z,92.75
2022-11-28T04:01:31.211Z,92.76
2022-11-28T04:02:31.319Z,92.71
2022-11-28T04:03:31.114Z,92.69
2022-11-28T04:04:31.159Z,92.72
2022-11-28T04:05:31.073Z,92.77
2022-11-28T04:06:31.190Z,92.81
2022-11-28T04:07:31.040Z,92.83
2022-11-28T04:08:31.088Z,92.84
2022-11-28T04:09:31.020Z,92.86
2022-11-28T04:10:31.108Z,92.87
2022-11-28T04:11:30.991Z,92.88
2022-11-28T04:12:31.047Z,92.87
2022-11-28T04:13:30.963Z,92.89
2022-11-28T04:14:31.033Z,92.90
2022-11-28T04:15:30.929Z,92.97
2022-11-28T04:16:31.022Z,93.05
2022-11-28T04:17:30.906Z,93.09
2022-11-28T04:18:30.980Z,93.15
2022-11-28T04:19:30.888Z,93.17
2022-11-28T04:20:30.952Z,93.16
2022-11-28T04:21:30.858Z,93.12
2022-11-28T04:22:30.964Z,93.10
2022-11-28T04:23:30.837Z,93.10
2022-11-28T04:24:30.893Z,93.16
2022-11-28T04:25:30.796Z,93.20
2022-11-28T04:26:30.871Z,93.19
2022-11-28T04:27:30.768Z,93.17
2022-11-28T04:28:30.856Z,93.10
2022-11-28T04:29:30.753Z,93.05
2022-11-28T04:30:30.821Z,93.08
2022-11-28T04:31:30.759Z,93.08
2022-11-28T04:32:30.784Z,93.12
2022-11-28T04:33:30.693Z,93.13
2022-11-28T04:34:30.781Z,93.15
2022-11-28T04:35:30.656Z,93.13
2022-11-28T04:36:30.740Z,93.13
2022-11-28T04:37:30.655Z,93.12
2022-11-28T04:38:30.703Z,93.13
2022-11-28T04:39:30.606Z,93.12
2022-11-28T04:40:30.690Z,93.11
2022-11-28T04:41:30.580Z,93.02
2022-11-28T04:42:30.682Z,92.94
2022-11-28T04:43:30.568Z,92.92
2022-11-28T04:44:30.629Z,92.92
2022-11-28T04:45:30.605Z,92.93
2022-11-28T04:46:30.633Z,92.93
2022-11-28T04:47:30.498Z,92.92
2022-11-28T04:48:34.289Z,92.81
2022-11-28T04:49:30.473Z,92.69
2022-11-28T04:50:30.549Z,92.58
2022-11-28T04:51:30.452Z,92.50
2022-11-28T04:52:30.516Z,92.47
2022-11-28T04:53:30.422Z,92.48
2022-11-28T04:54:30.492Z,92.45
2022-11-28T04:55:30.390Z,92.47
2022-11-28T04:56:30.463Z,92.48
2022-11-28T04:57:30.368Z,92.54
2022-11-28T04:58:30.438Z,92.56
2022-11-28T04:59:30.335Z,92.54
2022-11-28T05:00:30.457Z,92.55
2022-11-28T05:01:30.453Z,92.52
2022-11-28T05:02:30.466Z,92.56
2022-11-28T05:03:30.282Z,92.51
2022-11-28T05:04:30.367Z,92.51
2022-11-28T05:05:30.270Z,92.48
2022-11-28T05:06:30.317Z,92.47
2022-11-28T05:07:30.310Z,92.40
2022-11-28T05:08:30.307Z,92.32
2022-11-28T05:09:30.222Z,92.32
2022-11-28T05:10:30.289Z,92.37
2022-11-28T05:11:30.174Z,92.36
2022-11-28T05:12:30.260Z,92.36
2022-11-28T05:13:30.168Z,92.30
2022-11-28T05:14:30.236Z,92.29
2022-11-28T05:16:04.897Z,92.03
2022-11-28T05:17:05.952Z,92.27
2022-11-28T05:18:05.820Z,92.30
2022-11-28T05:19:05.872Z,92.33
2022-11-28T05:20:05.819Z,92.35
2022-11-28T05:21:05.852Z,92.31
2022-11-28T05:22:05.776Z,92.27
2022-11-28T05:23:05.837Z,92.25
2022-11-28T05:24:05.741Z,92.27
2022-11-28T05:25:05.817Z,92.35
2022-11-28T05:26:05.715Z,92.48
2022-11-28T05:27:05.852Z,92.54
2022-11-28T05:28:05.678Z,92.59
2022-11-28T05:29:05.742Z,92.56
2022-11-28T05:30:05.667Z,92.55
2022-11-28T05:31:05.836Z,92.58
2022-11-28T05:32:05.671Z,92.63
2022-11-28T05:33:05.707Z,92.62
2022-11-28T05:34:05.607Z,92.59
2022-11-28T05:35:05.675Z,92.63
2022-11-28T05:36:09.912Z,92.57
2022-11-28T05:50:02.302Z,91.58
2022-11-28T05:51:03.250Z,92.11
2022-11-28T05:52:03.168Z,92.22
2022-11-28T05:53:03.256Z,92.17
2022-11-28T05:54:03.183Z,92.19
2022-11-28T05:55:03.226Z,92.17
2022-11-28T05:56:03.119Z,92.17
2022-11-28T05:57:03.180Z,92.13
2022-11-28T05:58:03.105Z,92.10
2022-11-28T05:59:04.160Z,92.14
2022-11-28T06:00:03.155Z,92.14
2022-11-28T06:01:03.053Z,92.07
2022-11-28T06:02:03.178Z,92.05
2022-11-28T06:03:03.045Z,92.05
2022-11-28T06:04:03.163Z,92.02
2022-11-28T06:05:21.092Z,91.99
2022-11-28T06:06:03.084Z,92.01
2022-11-28T06:07:02.983Z,92.02
2022-11-28T06:08:03.301Z,92.05
2022-11-28T06:09:02.954Z,92.03
2022-11-28T06:10:03.031Z,92.02
2022-11-28T06:11:02.939Z,92.00
2022-11-28T06:12:04.016Z,91.97
2022-11-28T06:13:03.064Z,91.95
2022-11-28T06:14:02.900Z,91.95
2022-11-28T06:15:02.956Z,91.94
2022-11-28T06:16:02.969Z,91.87
2022-11-28T06:17:03.026Z,91.80
2022-11-28T06:18:02.853Z,91.76
2022-11-28T06:19:02.937Z,91.77
2022-11-28T06:20:02.829Z,91.71
2022-11-28T06:21:02.900Z,91.66
2022-11-28T06:22:02.814Z,91.68
2022-11-28T06:23:02.860Z,91.69
2022-11-28T06:24:02.897Z,91.63
2022-11-28T06:25:02.749Z,91.63
2022-11-28T06:26:02.807Z,91.56
2022-11-28T06:27:02.713Z,91.56
2022-11-28T06:28:02.875Z,91.49
2022-11-28T06:29:02.707Z,91.46
2022-11-28T06:30:02.986Z,91.49
2022-11-28T06:31:02.701Z,91.52
2022-11-28T06:32:02.834Z,91.47
2022-11-28T06:33:02.653Z,91.33
2022-11-28T06:34:02.717Z,91.24
2022-11-28T06:35:02.615Z,91.25
2022-11-28T06:36:02.695Z,91.27
2022-11-28T06:37:02.586Z,91.30
2022-11-28T06:38:02.657Z,91.27
2022-11-28T06:39:02.586Z,91.18
2022-11-28T06:40:02.646Z,91.18
2022-11-28T06:41:02.534Z,91.07
2022-11-28T06:42:02.612Z,91.07
2022-11-28T06:43:02.519Z,91.03
2022-11-28T06:44:03.072Z,91.09
2022-11-28T06:45:02.497Z,91.07
2022-11-28T06:46:02.647Z,91.06
2022-11-28T06:47:02.532Z,91.04
2022-11-28T06:48:02.519Z,91.01
2022-11-28T06:49:02.447Z,91.03
2022-11-28T06:50:02.682Z,91.06
2022-11-28T06:51:02.417Z,91.06
2022-11-28T06:52:02.488Z,91.07
2022-11-28T06:53:02.379Z,91.05
2022-11-28T06:54:02.525Z,90.99
2022-11-28T06:55:02.362Z,91.01
2022-11-28T06:56:02.436Z,91.02
2022-11-28T06:57:02.340Z,90.95
2022-11-28T06:58:02.384Z,90.92
2022-11-28T06:59:02.313Z,90.87
2022-11-28T07:00:08.332Z,90.90
2022-11-28T07:01:02.385Z,90.90
2022-11-28T07:02:07.267Z,90.87
2022-11-28T07:03:02.431Z,90.87
2022-11-28T07:04:02.273Z,90.81
2022-11-28T07:05:02.334Z,90.76
2022-11-28T07:06:02.211Z,90.72
2022-11-28T07:07:02.281Z,90.65
2022-11-28T07:08:02.194Z,90.49
2022-11-28T07:09:03.250Z,90.46
2022-11-28T07:10:02.444Z,90.40
2022-11-28T07:11:02.134Z,90.64
2022-11-28T07:12:02.246Z,90.87
2022-11-28T07:13:05.365Z,90.85
2022-11-28T07:14:02.184Z,90.80
2022-11-28T07:15:02.090Z,90.77
2022-11-28T07:16:02.149Z,90.75
2022-11-28T07:17:02.121Z,90.73
2022-11-28T07:18:08.078Z,90.69
2022-11-28T07:19:02.134Z,90.69
2022-11-28T07:20:02.028Z,90.67
2022-11-28T07:21:02.097Z,90.68
2022-11-28T07:22:02.007Z,90.69
2022-11-28T07:23:02.095Z,90.68
2022-11-28T07:24:01.982Z,90.60
2022-11-28T07:25:02.045Z,90.42
2022-11-28T07:26:01.963Z,90.39
2022-11-28T07:27:02.026Z,90.41
2022-11-28T07:28:01.931Z,90.43
2022-11-28T07:29:02.010Z,90.45
2022-11-28T07:30:01.904Z,90.41
2022-11-28T07:31:01.971Z,90.24
2022-11-28T07:32:01.967Z,90.19
2022-11-28T07:33:01.930Z,90.14
2022-11-28T07:34:01.845Z,90.06
2022-11-28T07:35:01.917Z,89.99
2022-11-28T07:36:01.827Z,89.87
2022-11-28T07:37:01.902Z,89.85
2022-11-28T07:38:01.794Z,89.87
2022-11-28T07:39:01.866Z,89.91
2022-11-28T07:40:01.783Z,89.95
2022-11-28T07:41:01.860Z,89.98
2022-11-28T07:42:02.352Z,90.00
2022-11-28T07:43:02.803Z,90.03
2022-11-28T07:44:01.794Z,90.00
2022-11-28T07:45:01.708Z,89.88
2022-11-28T07:46:01.956Z,89.99
2022-11-28T07:47:01.721Z,90.13
2022-11-28T07:48:01.759Z,90.22
2022-11-28T07:49:01.649Z,90.18
2022-11-28T07:50:01.716Z,90.20
2022-11-28T07:51:01.625Z,90.27
2022-11-28T07:52:01.717Z,90.28
2022-11-28T07:53:06.810Z,90.32
2022-11-28T07:54:02.669Z,90.32
2022-11-28T07:55:02.661Z,90.35
2022-11-28T07:56:01.641Z,90.30
2022-11-28T07:57:12.467Z,90.25
2022-11-28T07:58:01.625Z,90.24
2022-11-28T07:59:03.327Z,90.27
2022-11-28T08:00:01.598Z,90.18
2022-11-28T08:01:01.500Z,90.13
2022-11-28T08:02:01.839Z,89.94
2022-11-28T08:03:01.466Z,89.82
2022-11-28T08:04:01.878Z,89.79
2022-11-28T08:05:01.470Z,89.83
2022-11-28T08:06:03.035Z,89.96
2022-11-28T08:07:01.428Z,90.05
2022-11-28T08:08:01.546Z,90.10
2022-11-28T08:09:01.396Z,90.11
2022-11-28T08:10:01.464Z,90.11
2022-11-28T08:11:01.355Z,90.12
2022-11-28T08:12:01.436Z,90.13
2022-11-28T08:13:01.332Z,90.11
2022-11-28T08:14:01.407Z,90.04
2022-11-28T08:15:01.299Z,89.99
2022-11-28T08:16:01.539Z,89.89
2022-11-28T08:17:01.386Z,89.80
2022-11-28T08:18:01.355Z,89.76
2022-11-28T08:19:01.253Z,89.76
2022-11-28T08:20:01.312Z,89.84
2022-11-28T08:21:01.225Z,89.89
2022-11-28T08:22:01.319Z,89.82
2022-11-28T08:23:01.200Z,89.92
2022-11-28T08:24:01.278Z,89.93
2022-11-28T08:25:01.169Z,89.92
2022-11-28T08:26:01.229Z,89.94
2022-11-28T08:27:01.174Z,89.98
2022-11-28T08:28:01.214Z,90.00
2022-11-28T08:29:01.130Z,89.99
2022-11-28T08:30:01.197Z,89.96
2022-11-28T08:31:01.149Z,89.80
2022-11-28T08:32:01.183Z,89.60
2022-11-28T08:33:01.088Z,89.53
2022-11-28T08:34:01.139Z,89.33
2022-11-28T08:35:01.037Z,89.19
2022-11-28T08:36:01.118Z,89.01
2022-11-28T08:37:01.096Z,89.04
2022-11-28T08:38:02.212Z,89.11
2022-11-28T08:39:22.856Z,89.00
2022-11-28T08:40:01.131Z,89.05
2022-11-28T08:41:00.983Z,89.15
2022-11-28T08:42:01.055Z,89.20
2022-11-28T08:43:00.934Z,89.26
2022-11-28T08:44:01.031Z,89.35
2022-11-28T08:45:00.919Z,89.43
2022-11-28T08:46:01.118Z,89.40
2022-11-28T08:47:00.898Z,89.41
2022-11-28T08:48:00.959Z,89.43
2022-11-28T08:49:00.860Z,89.46
2022-11-28T08:50:00.927Z,89.47
2022-11-28T08:51:00.860Z,89.33
2022-11-28T08:52:00.903Z,89.32
2022-11-28T08:53:07.651Z,89.30
2022-11-28T08:54:01.886Z,89.37
2022-11-28T08:55:00.894Z,89.78
2022-11-28T08:56:00.787Z,89.77
2022-11-28T08:57:00.850Z,89.95
2022-11-28T08:58:00.748Z,89.92
2022-11-28T08:59:00.801Z,89.73
2022-11-28T09:00:00.707Z,89.66
2022-11-28T09:01:00.822Z,89.55
2022-11-28T09:02:00.700Z,89.25
2022-11-28T09:03:00.763Z,89.17
2022-11-28T09:04:00.793Z,89.07
2022-11-28T09:05:00.718Z,89.06
2022-11-28T09:06:00.632Z,88.90
2022-11-28T09:07:00.714Z,88.78
2022-11-28T09:08:00.763Z,88.65
2022-11-28T09:09:00.696Z,88.62
2022-11-28T09:10:00.580Z,88.60
2022-11-28T09:11:00.673Z,88.68
2022-11-28T09:12:00.571Z,88.83
2022-11-28T09:13:00.630Z,88.90
2022-11-28T09:14:00.530Z,88.92
2022-11-28T09:15:00.658Z,88.82
2022-11-28T09:16:00.503Z,88.87
2022-11-28T09:17:00.729Z,89.12
2022-11-28T09:18:00.489Z,89.18
2022-11-28T09:19:00.563Z,89.35
2022-11-28T09:20:00.469Z,89.30
2022-11-28T09:21:00.535Z,88.88
2022-11-28T09:22:00.435Z,88.52
2022-11-28T09:23:00.583Z,88.37
2022-11-28T09:24:00.393Z,88.59
2022-11-28T09:25:00.478Z,88.30
2022-11-28T09:26:00.387Z,88.12
2022-11-28T09:27:00.454Z,88.04
2022-11-28T09:28:00.347Z,88.10
2022-11-28T09:29:00.428Z,88.19
2022-11-28T09:30:00.340Z,88.32
2022-11-28T09:31:00.459Z,88.39
2022-11-28T09:32:00.309Z,88.51
2022-11-28T09:33:00.377Z,88.47
2022-11-28T09:34:00.265Z,88.52
2022-11-28T09:35:00.346Z,88.62
2022-11-28T09:36:00.258Z,88.38
